sensor_id;sensor_type;location;lat;lon;timestamp;P1;durP1;ratioP1;P2;durP2;ratioP2
72647;SDS011;60693;50.002;8.644;2022-08-25T00:01:26;8.45;;;2.40;;
72647;SDS011;60693;50.002;8.644;2022-08-25T00:03:54;8.70;;;2.30;;
72647;SDS011;60693;50.002;8.644;2022-08-25T00:06:21;8.50;;;2.40;;
72647;SDS011;60693;50.002;8.644;2022-08-25T00:08:47;9.18;;;2.80;;
72647;SDS011;60693;50.002;8.644;2022-08-25T00:11:15;10.03;;;2.60;;
72647;SDS011;60693;50.002;8.644;2022-08-25T00:13:45;8.30;;;2.90;;
72647;SDS011;60693;50.002;8.644;2022-08-25T00:16:15;8.65;;;3.05;;
72647;SDS011;60693;50.002;8.644;2022-08-25T00:18:42;8.82;;;2.58;;
72647;SDS011;60693;50.002;8.644;2022-08-25T00:21:10;8.18;;;2.55;;
72647;SDS011;60693;50.002;8.644;2022-08-25T00:23:36;7.63;;;2.60;;
72647;SDS011;60693;50.002;8.644;2022-08-25T00:26:02;8.05;;;2.80;;
72647;SDS011;60693;50.002;8.644;2022-08-25T00:28:28;8.15;;;3.08;;
72647;SDS011;60693;50.002;8.644;2022-08-25T00:30:55;9.20;;;2.60;;
72647;SDS011;60693;50.002;8.644;2022-08-25T00:33:23;8.03;;;2.70;;
72647;SDS011;60693;50.002;8.644;2022-08-25T00:35:50;7.28;;;2.40;;
72647;SDS011;60693;50.002;8.644;2022-08-25T00:38:16;7.95;;;2.75;;
72647;SDS011;60693;50.002;8.644;2022-08-25T00:40:42;6.53;;;2.30;;
72647;SDS011;60693;50.002;8.644;2022-08-25T00:43:08;8.05;;;2.95;;
72647;SDS011;60693;50.002;8.644;2022-08-25T00:45:34;8.35;;;2.50;;
72647;SDS011;60693;50.002;8.644;2022-08-25T00:48:00;7.60;;;2.92;;
72647;SDS011;60693;50.002;8.644;2022-08-25T00:50:27;8.30;;;2.47;;
72647;SDS011;60693;50.002;8.644;2022-08-25T00:52:55;9.25;;;2.70;;
72647;SDS011;60693;50.002;8.644;2022-08-25T00:55:27;9.43;;;2.80;;
72647;SDS011;60693;50.002;8.644;2022-08-25T00:57:56;8.80;;;2.80;;
72647;SDS011;60693;50.002;8.644;2022-08-25T01:00:29;7.85;;;2.53;;
72647;SDS011;60693;50.002;8.644;2022-08-25T01:02:57;7.47;;;2.53;;
72647;SDS011;60693;50.002;8.644;2022-08-25T01:05:24;8.60;;;2.60;;
72647;SDS011;60693;50.002;8.644;2022-08-25T01:07:50;8.60;;;3.05;;
72647;SDS011;60693;50.002;8.644;2022-08-25T01:10:17;7.40;;;2.45;;
72647;SDS011;60693;50.002;8.644;2022-08-25T01:12:43;9.27;;;3.15;;
72647;SDS011;60693;50.002;8.644;2022-08-25T01:15:09;9.80;;;2.90;;
72647;SDS011;60693;50.002;8.644;2022-08-25T01:17:50;6.85;;;2.55;;
72647;SDS011;60693;50.002;8.644;2022-08-25T01:20:19;7.72;;;3.08;;
72647;SDS011;60693;50.002;8.644;2022-08-25T01:22:46;7.37;;;2.83;;
72647;SDS011;60693;50.002;8.644;2022-08-25T01:25:19;7.30;;;2.90;;
72647;SDS011;60693;50.002;8.644;2022-08-25T01:27:57;9.38;;;3.22;;
72647;SDS011;60693;50.002;8.644;2022-08-25T01:30:22;9.93;;;2.93;;
72647;SDS011;60693;50.002;8.644;2022-08-25T01:32:48;8.50;;;3.03;;
72647;SDS011;60693;50.002;8.644;2022-08-25T01:35:14;8.17;;;2.60;;
72647;SDS011;60693;50.002;8.644;2022-08-25T01:37:40;10.80;;;3.50;;
72647;SDS011;60693;50.002;8.644;2022-08-25T01:40:05;8.13;;;2.97;;
72647;SDS011;60693;50.002;8.644;2022-08-25T01:42:36;7.47;;;2.70;;
72647;SDS011;60693;50.002;8.644;2022-08-25T01:45:23;8.70;;;2.90;;
72647;SDS011;60693;50.002;8.644;2022-08-25T01:47:48;7.28;;;2.78;;
72647;SDS011;60693;50.002;8.644;2022-08-25T01:50:14;9.60;;;2.97;;
72647;SDS011;60693;50.002;8.644;2022-08-25T01:55:24;8.95;;;3.40;;
72647;SDS011;60693;50.002;8.644;2022-08-25T01:57:50;9.17;;;3.43;;
72647;SDS011;60693;50.002;8.644;2022-08-25T02:00:16;7.93;;;2.85;;
72647;SDS011;60693;50.002;8.644;2022-08-25T02:02:43;10.88;;;3.00;;
72647;SDS011;60693;50.002;8.644;2022-08-25T02:05:09;8.23;;;2.93;;
72647;SDS011;60693;50.002;8.644;2022-08-25T02:07:37;8.32;;;2.90;;
72647;SDS011;60693;50.002;8.644;2022-08-25T02:10:04;8.93;;;3.30;;
72647;SDS011;60693;50.002;8.644;2022-08-25T02:12:30;10.48;;;3.38;;
72647;SDS011;60693;50.002;8.644;2022-08-25T02:14:57;9.00;;;3.17;;
72647;SDS011;60693;50.002;8.644;2022-08-25T02:17:23;7.67;;;2.97;;
72647;SDS011;60693;50.002;8.644;2022-08-25T02:19:49;9.50;;;3.20;;
72647;SDS011;60693;50.002;8.644;2022-08-25T02:22:15;7.53;;;2.80;;
72647;SDS011;60693;50.002;8.644;2022-08-25T02:24:41;9.30;;;3.10;;
72647;SDS011;60693;50.002;8.644;2022-08-25T02:27:07;9.33;;;3.13;;
72647;SDS011;60693;50.002;8.644;2022-08-25T02:29:34;7.72;;;3.20;;
72647;SDS011;60693;50.002;8.644;2022-08-25T02:32:00;10.65;;;3.45;;
72647;SDS011;60693;50.002;8.644;2022-08-25T02:34:26;10.80;;;3.37;;
72647;SDS011;60693;50.002;8.644;2022-08-25T02:36:52;9.07;;;3.50;;
72647;SDS011;60693;50.002;8.644;2022-08-25T02:39:17;8.55;;;3.42;;
72647;SDS011;60693;50.002;8.644;2022-08-25T02:41:43;10.13;;;4.13;;
72647;SDS011;60693;50.002;8.644;2022-08-25T02:44:09;10.60;;;3.67;;
72647;SDS011;60693;50.002;8.644;2022-08-25T02:46:35;9.30;;;3.53;;
72647;SDS011;60693;50.002;8.644;2022-08-25T02:49:02;9.50;;;3.58;;
72647;SDS011;60693;50.002;8.644;2022-08-25T02:51:28;8.45;;;3.58;;
72647;SDS011;60693;50.002;8.644;2022-08-25T02:53:54;10.27;;;3.70;;
72647;SDS011;60693;50.002;8.644;2022-08-25T02:56:21;8.40;;;3.17;;
72647;SDS011;60693;50.002;8.644;2022-08-25T02:58:48;9.85;;;3.90;;
72647;SDS011;60693;50.002;8.644;2022-08-25T03:01:14;9.23;;;3.25;;
72647;SDS011;60693;50.002;8.644;2022-08-25T03:03:41;8.60;;;3.72;;
72647;SDS011;60693;50.002;8.644;2022-08-25T03:06:09;10.53;;;3.30;;
72647;SDS011;60693;50.002;8.644;2022-08-25T03:08:36;7.95;;;3.30;;
72647;SDS011;60693;50.002;8.644;2022-08-25T03:11:03;8.48;;;3.25;;
72647;SDS011;60693;50.002;8.644;2022-08-25T03:13:29;10.40;;;3.55;;
72647;SDS011;60693;50.002;8.644;2022-08-25T03:15:57;9.55;;;3.88;;
72647;SDS011;60693;50.002;8.644;2022-08-25T03:18:24;9.20;;;3.93;;
72647;SDS011;60693;50.002;8.644;2022-08-25T03:20:49;9.77;;;3.90;;
72647;SDS011;60693;50.002;8.644;2022-08-25T03:23:15;10.20;;;3.63;;
72647;SDS011;60693;50.002;8.644;2022-08-25T03:25:41;9.35;;;3.80;;
72647;SDS011;60693;50.002;8.644;2022-08-25T03:28:26;9.98;;;3.97;;
72647;SDS011;60693;50.002;8.644;2022-08-25T03:30:52;10.27;;;3.90;;
72647;SDS011;60693;50.002;8.644;2022-08-25T03:33:18;10.63;;;3.80;;
72647;SDS011;60693;50.002;8.644;2022-08-25T03:35:44;10.13;;;3.72;;
72647;SDS011;60693;50.002;8.644;2022-08-25T03:38:10;8.38;;;3.50;;
72647;SDS011;60693;50.002;8.644;2022-08-25T03:40:35;11.00;;;4.10;;
72647;SDS011;60693;50.002;8.644;2022-08-25T03:43:02;8.63;;;3.70;;
72647;SDS011;60693;50.002;8.644;2022-08-25T03:45:28;9.57;;;4.28;;
72647;SDS011;60693;50.002;8.644;2022-08-25T03:47:54;9.83;;;3.70;;
72647;SDS011;60693;50.002;8.644;2022-08-25T03:50:20;9.20;;;4.07;;
72647;SDS011;60693;50.002;8.644;2022-08-25T03:52:50;9.03;;;3.60;;
72647;SDS011;60693;50.002;8.644;2022-08-25T03:55:18;13.15;;;4.00;;
72647;SDS011;60693;50.002;8.644;2022-08-25T03:57:44;8.32;;;3.50;;
72647;SDS011;60693;50.002;8.644;2022-08-25T04:00:10;9.53;;;3.80;;
72647;SDS011;60693;50.002;8.644;2022-08-25T04:02:36;10.10;;;3.95;;
72647;SDS011;60693;50.002;8.644;2022-08-25T04:05:03;9.32;;;3.75;;
72647;SDS011;60693;50.002;8.644;2022-08-25T04:07:29;10.45;;;3.67;;
72647;SDS011;60693;50.002;8.644;2022-08-25T04:09:55;9.17;;;4.00;;
72647;SDS011;60693;50.002;8.644;2022-08-25T04:12:21;12.20;;;4.50;;
72647;SDS011;60693;50.002;8.644;2022-08-25T04:14:47;9.68;;;4.10;;
72647;SDS011;60693;50.002;8.644;2022-08-25T04:17:13;9.80;;;4.10;;
72647;SDS011;60693;50.002;8.644;2022-08-25T04:19:39;11.07;;;4.57;;
72647;SDS011;60693;50.002;8.644;2022-08-25T04:22:04;9.37;;;4.43;;
72647;SDS011;60693;50.002;8.644;2022-08-25T04:24:30;8.57;;;3.92;;
72647;SDS011;60693;50.002;8.644;2022-08-25T04:26:56;11.98;;;4.43;;
72647;SDS011;60693;50.002;8.644;2022-08-25T04:29:22;8.77;;;4.30;;
72647;SDS011;60693;50.002;8.644;2022-08-25T04:31:49;11.32;;;4.55;;
72647;SDS011;60693;50.002;8.644;2022-08-25T04:34:19;11.77;;;4.40;;
72647;SDS011;60693;50.002;8.644;2022-08-25T04:36:45;9.82;;;4.53;;
72647;SDS011;60693;50.002;8.644;2022-08-25T04:39:12;9.80;;;4.20;;
72647;SDS011;60693;50.002;8.644;2022-08-25T04:41:37;12.32;;;4.50;;
72647;SDS011;60693;50.002;8.644;2022-08-25T04:44:03;9.80;;;4.15;;
72647;SDS011;60693;50.002;8.644;2022-08-25T04:46:30;12.43;;;4.50;;
72647;SDS011;60693;50.002;8.644;2022-08-25T04:48:57;11.48;;;4.93;;
72647;SDS011;60693;50.002;8.644;2022-08-25T04:51:26;14.10;;;5.28;;
72647;SDS011;60693;50.002;8.644;2022-08-25T04:54:00;13.18;;;4.50;;
72647;SDS011;60693;50.002;8.644;2022-08-25T04:56:30;9.30;;;4.50;;
72647;SDS011;60693;50.002;8.644;2022-08-25T04:59:01;13.13;;;4.53;;
72647;SDS011;60693;50.002;8.644;2022-08-25T05:01:31;10.45;;;4.28;;
72647;SDS011;60693;50.002;8.644;2022-08-25T05:03:58;10.63;;;4.05;;
72647;SDS011;60693;50.002;8.644;2022-08-25T05:06:25;11.30;;;4.82;;
72647;SDS011;60693;50.002;8.644;2022-08-25T05:08:51;11.07;;;5.00;;
72647;SDS011;60693;50.002;8.644;2022-08-25T05:11:17;12.90;;;5.32;;
72647;SDS011;60693;50.002;8.644;2022-08-25T05:13:45;9.35;;;4.80;;
72647;SDS011;60693;50.002;8.644;2022-08-25T05:16:12;12.75;;;4.88;;
72647;SDS011;60693;50.002;8.644;2022-08-25T05:18:38;11.47;;;4.67;;
72647;SDS011;60693;50.002;8.644;2022-08-25T05:21:09;12.25;;;5.05;;
72647;SDS011;60693;50.002;8.644;2022-08-25T05:23:37;10.93;;;4.47;;
72647;SDS011;60693;50.002;8.644;2022-08-25T05:26:04;11.67;;;4.97;;
72647;SDS011;60693;50.002;8.644;2022-08-25T05:28:35;14.57;;;4.60;;
72647;SDS011;60693;50.002;8.644;2022-08-25T05:31:01;12.60;;;5.30;;
72647;SDS011;60693;50.002;8.644;2022-08-25T05:33:29;13.68;;;5.47;;
72647;SDS011;60693;50.002;8.644;2022-08-25T05:35:55;15.68;;;4.82;;
72647;SDS011;60693;50.002;8.644;2022-08-25T05:38:21;12.00;;;5.53;;
72647;SDS011;60693;50.002;8.644;2022-08-25T05:40:50;14.50;;;5.20;;
72647;SDS011;60693;50.002;8.644;2022-08-25T05:43:17;13.95;;;5.38;;
72647;SDS011;60693;50.002;8.644;2022-08-25T05:45:42;12.43;;;4.90;;
72647;SDS011;60693;50.002;8.644;2022-08-25T05:48:08;12.00;;;5.32;;
72647;SDS011;60693;50.002;8.644;2022-08-25T05:50:33;11.20;;;5.07;;
72647;SDS011;60693;50.002;8.644;2022-08-25T05:52:59;11.00;;;5.13;;
72647;SDS011;60693;50.002;8.644;2022-08-25T05:55:25;14.83;;;5.40;;
72647;SDS011;60693;50.002;8.644;2022-08-25T05:57:51;11.00;;;5.00;;
72647;SDS011;60693;50.002;8.644;2022-08-25T06:00:17;12.67;;;5.63;;
72647;SDS011;60693;50.002;8.644;2022-08-25T06:02:43;10.57;;;5.57;;
72647;SDS011;60693;50.002;8.644;2022-08-25T06:05:16;11.60;;;5.18;;
72647;SDS011;60693;50.002;8.644;2022-08-25T06:07:44;11.97;;;5.33;;
72647;SDS011;60693;50.002;8.644;2022-08-25T06:10:10;11.85;;;5.65;;
72647;SDS011;60693;50.002;8.644;2022-08-25T06:12:37;12.93;;;5.18;;
72647;SDS011;60693;50.002;8.644;2022-08-25T06:15:05;11.63;;;5.45;;
72647;SDS011;60693;50.002;8.644;2022-08-25T06:17:32;11.13;;;5.00;;
72647;SDS011;60693;50.002;8.644;2022-08-25T06:19:59;10.73;;;5.20;;
72647;SDS011;60693;50.002;8.644;2022-08-25T06:22:26;10.55;;;4.97;;
72647;SDS011;60693;50.002;8.644;2022-08-25T06:24:51;10.15;;;4.85;;
72647;SDS011;60693;50.002;8.644;2022-08-25T06:27:17;11.93;;;5.40;;
72647;SDS011;60693;50.002;8.644;2022-08-25T06:29:43;11.85;;;5.22;;
72647;SDS011;60693;50.002;8.644;2022-08-25T06:32:08;9.87;;;5.20;;
72647;SDS011;60693;50.002;8.644;2022-08-25T06:34:34;12.10;;;4.90;;
72647;SDS011;60693;50.002;8.644;2022-08-25T06:37:00;14.27;;;5.30;;
72647;SDS011;60693;50.002;8.644;2022-08-25T06:39:26;14.07;;;5.63;;
72647;SDS011;60693;50.002;8.644;2022-08-25T06:41:52;12.93;;;6.17;;
72647;SDS011;60693;50.002;8.644;2022-08-25T06:44:20;10.73;;;5.35;;
72647;SDS011;60693;50.002;8.644;2022-08-25T06:46:46;12.43;;;5.93;;
72647;SDS011;60693;50.002;8.644;2022-08-25T06:49:12;13.47;;;6.60;;
72647;SDS011;60693;50.002;8.644;2022-08-25T06:51:38;11.85;;;6.40;;
72647;SDS011;60693;50.002;8.644;2022-08-25T06:54:04;12.88;;;6.25;;
72647;SDS011;60693;50.002;8.644;2022-08-25T06:56:32;12.70;;;6.40;;
72647;SDS011;60693;50.002;8.644;2022-08-25T06:58:59;12.63;;;6.25;;
72647;SDS011;60693;50.002;8.644;2022-08-25T07:01:26;12.48;;;6.68;;
72647;SDS011;60693;50.002;8.644;2022-08-25T07:03:55;13.17;;;6.70;;
72647;SDS011;60693;50.002;8.644;2022-08-25T07:06:24;12.57;;;6.20;;
72647;SDS011;60693;50.002;8.644;2022-08-25T07:08:51;14.15;;;6.78;;
72647;SDS011;60693;50.002;8.644;2022-08-25T07:11:17;12.73;;;7.13;;
72647;SDS011;60693;50.002;8.644;2022-08-25T07:13:44;13.77;;;7.25;;
72647;SDS011;60693;50.002;8.644;2022-08-25T07:16:10;16.02;;;7.28;;
72647;SDS011;60693;50.002;8.644;2022-08-25T07:18:36;14.87;;;6.97;;
72647;SDS011;60693;50.002;8.644;2022-08-25T07:21:01;12.82;;;7.03;;
72647;SDS011;60693;50.002;8.644;2022-08-25T07:23:27;14.17;;;6.40;;
72647;SDS011;60693;50.002;8.644;2022-08-25T07:25:53;12.23;;;6.70;;
72647;SDS011;60693;50.002;8.644;2022-08-25T07:28:19;11.70;;;6.30;;
72647;SDS011;60693;50.002;8.644;2022-08-25T07:30:46;12.27;;;6.57;;
72647;SDS011;60693;50.002;8.644;2022-08-25T07:33:11;12.43;;;6.90;;
72647;SDS011;60693;50.002;8.644;2022-08-25T07:35:37;13.30;;;6.53;;
72647;SDS011;60693;50.002;8.644;2022-08-25T07:38:04;14.90;;;7.10;;
72647;SDS011;60693;50.002;8.644;2022-08-25T07:40:32;13.38;;;7.47;;
72647;SDS011;60693;50.002;8.644;2022-08-25T07:43:01;14.27;;;7.13;;
72647;SDS011;60693;50.002;8.644;2022-08-25T07:45:30;13.23;;;7.20;;
72647;SDS011;60693;50.002;8.644;2022-08-25T07:47:58;13.00;;;6.67;;
72647;SDS011;60693;50.002;8.644;2022-08-25T07:50:26;15.77;;;7.28;;
72647;SDS011;60693;50.002;8.644;2022-08-25T07:52:54;13.13;;;6.75;;
72647;SDS011;60693;50.002;8.644;2022-08-25T07:55:20;12.82;;;6.78;;
72647;SDS011;60693;50.002;8.644;2022-08-25T07:57:48;13.35;;;6.50;;
72647;SDS011;60693;50.002;8.644;2022-08-25T08:00:14;13.67;;;6.70;;
72647;SDS011;60693;50.002;8.644;2022-08-25T08:02:41;16.60;;;6.85;;
72647;SDS011;60693;50.002;8.644;2022-08-25T08:05:07;12.13;;;6.90;;
72647;SDS011;60693;50.002;8.644;2022-08-25T08:07:33;14.45;;;7.75;;
72647;SDS011;60693;50.002;8.644;2022-08-25T08:09:59;12.80;;;6.70;;
72647;SDS011;60693;50.002;8.644;2022-08-25T08:12:25;13.60;;;6.60;;
72647;SDS011;60693;50.002;8.644;2022-08-25T08:14:51;12.13;;;6.75;;
72647;SDS011;60693;50.002;8.644;2022-08-25T08:17:18;12.02;;;6.50;;
72647;SDS011;60693;50.002;8.644;2022-08-25T08:19:44;11.70;;;6.00;;
72647;SDS011;60693;50.002;8.644;2022-08-25T08:22:10;13.05;;;7.10;;
72647;SDS011;60693;50.002;8.644;2022-08-25T08:24:39;13.57;;;6.80;;
72647;SDS011;60693;50.002;8.644;2022-08-25T08:27:05;13.43;;;6.37;;
72647;SDS011;60693;50.002;8.644;2022-08-25T08:29:33;11.30;;;6.47;;
72647;SDS011;60693;50.002;8.644;2022-08-25T08:31:59;13.23;;;6.32;;
72647;SDS011;60693;50.002;8.644;2022-08-25T08:34:25;13.57;;;6.80;;
72647;SDS011;60693;50.002;8.644;2022-08-25T08:36:51;13.07;;;6.73;;
72647;SDS011;60693;50.002;8.644;2022-08-25T08:39:17;14.43;;;5.65;;
72647;SDS011;60693;50.002;8.644;2022-08-25T08:42:00;14.77;;;6.32;;
72647;SDS011;60693;50.002;8.644;2022-08-25T08:55:03;12.47;;;5.60;;
72647;SDS011;60693;50.002;8.644;2022-08-25T08:57:34;12.52;;;6.03;;
72647;SDS011;60693;50.002;8.644;2022-08-25T09:00:07;12.35;;;6.25;;
72647;SDS011;60693;50.002;8.644;2022-08-25T09:02:34;10.50;;;5.18;;
72647;SDS011;60693;50.002;8.644;2022-08-25T09:05:07;12.40;;;4.82;;
72647;SDS011;60693;50.002;8.644;2022-08-25T09:07:39;12.37;;;5.70;;
72647;SDS011;60693;50.002;8.644;2022-08-25T09:10:09;14.55;;;5.30;;
72647;SDS011;60693;50.002;8.644;2022-08-25T09:21:19;11.85;;;5.45;;
72647;SDS011;60693;50.002;8.644;2022-08-25T09:26:39;10.85;;;5.47;;
72647;SDS011;60693;50.002;8.644;2022-08-25T09:29:07;10.90;;;5.68;;
72647;SDS011;60693;50.002;8.644;2022-08-25T09:31:36;15.67;;;6.20;;
72647;SDS011;60693;50.002;8.644;2022-08-25T09:34:04;11.80;;;5.85;;
72647;SDS011;60693;50.002;8.644;2022-08-25T09:36:37;12.38;;;6.13;;
72647;SDS011;60693;50.002;8.644;2022-08-25T09:39:03;12.60;;;6.43;;
72647;SDS011;60693;50.002;8.644;2022-08-25T09:44:04;15.20;;;6.07;;
72647;SDS011;60693;50.002;8.644;2022-08-25T09:46:41;12.23;;;5.93;;
72647;SDS011;60693;50.002;8.644;2022-08-25T09:49:39;11.43;;;6.15;;
72647;SDS011;60693;50.002;8.644;2022-08-25T09:54:58;11.50;;;5.75;;
72647;SDS011;60693;50.002;8.644;2022-08-25T09:59:53;13.73;;;6.03;;
72647;SDS011;60693;50.002;8.644;2022-08-25T10:02:25;12.60;;;6.10;;
72647;SDS011;60693;50.002;8.644;2022-08-25T10:04:52;13.40;;;6.40;;
72647;SDS011;60693;50.002;8.644;2022-08-25T10:07:23;11.63;;;6.15;;
72647;SDS011;60693;50.002;8.644;2022-08-25T10:09:53;13.45;;;6.45;;
72647;SDS011;60693;50.002;8.644;2022-08-25T10:12:23;13.73;;;6.63;;
72647;SDS011;60693;50.002;8.644;2022-08-25T10:14:55;11.40;;;5.82;;
72647;SDS011;60693;50.002;8.644;2022-08-25T10:20:11;12.68;;;6.68;;
72647;SDS011;60693;50.002;8.644;2022-08-25T10:22:44;11.45;;;6.15;;
72647;SDS011;60693;50.002;8.644;2022-08-25T10:25:11;12.13;;;6.83;;
72647;SDS011;60693;50.002;8.644;2022-08-25T10:27:42;12.38;;;6.53;;
72647;SDS011;60693;50.002;8.644;2022-08-25T10:31:19;12.13;;;6.15;;
72647;SDS011;60693;50.002;8.644;2022-08-25T10:36:30;13.30;;;6.05;;
72647;SDS011;60693;50.002;8.644;2022-08-25T10:39:06;12.40;;;5.70;;
72647;SDS011;60693;50.002;8.644;2022-08-25T10:41:49;11.10;;;6.07;;
72647;SDS011;60693;50.002;8.644;2022-08-25T10:47:30;14.10;;;5.70;;
72647;SDS011;60693;50.002;8.644;2022-08-25T10:50:12;11.43;;;5.70;;
72647;SDS011;60693;50.002;8.644;2022-08-25T11:04:10;12.68;;;6.45;;
72647;SDS011;60693;50.002;8.644;2022-08-25T11:06:49;10.57;;;5.83;;
72647;SDS011;60693;50.002;8.644;2022-08-25T11:09:20;10.73;;;5.82;;
72647;SDS011;60693;50.002;8.644;2022-08-25T11:11:52;13.00;;;5.80;;
72647;SDS011;60693;50.002;8.644;2022-08-25T11:14:23;12.90;;;6.38;;
72647;SDS011;60693;50.002;8.644;2022-08-25T11:17:10;12.57;;;6.25;;
72647;SDS011;60693;50.002;8.644;2022-08-25T11:19:44;11.93;;;5.57;;
72647;SDS011;60693;50.002;8.644;2022-08-25T11:22:17;11.38;;;5.68;;
72647;SDS011;60693;50.002;8.644;2022-08-25T11:24:53;10.98;;;5.35;;
72647;SDS011;60693;50.002;8.644;2022-08-25T11:27:34;15.80;;;8.63;;
72647;SDS011;60693;50.002;8.644;2022-08-25T11:30:04;10.63;;;5.53;;
72647;SDS011;60693;50.002;8.644;2022-08-25T11:32:32;12.47;;;5.53;;
72647;SDS011;60693;50.002;8.644;2022-08-25T11:35:00;10.75;;;5.55;;
72647;SDS011;60693;50.002;8.644;2022-08-25T11:37:27;10.73;;;5.13;;
72647;SDS011;60693;50.002;8.644;2022-08-25T11:40:03;11.43;;;5.43;;
72647;SDS011;60693;50.002;8.644;2022-08-25T11:42:47;14.40;;;4.80;;
72647;SDS011;60693;50.002;8.644;2022-08-25T11:48:40;9.60;;;4.95;;
72647;SDS011;60693;50.002;8.644;2022-08-25T11:51:08;10.52;;;4.47;;
72647;SDS011;60693;50.002;8.644;2022-08-25T11:54:03;9.10;;;4.57;;
72647;SDS011;60693;50.002;8.644;2022-08-25T11:57:05;10.35;;;5.05;;
72647;SDS011;60693;50.002;8.644;2022-08-25T12:02:30;10.15;;;4.57;;
72647;SDS011;60693;50.002;8.644;2022-08-25T12:04:59;9.75;;;4.00;;
72647;SDS011;60693;50.002;8.644;2022-08-25T12:07:26;9.07;;;3.90;;
72647;SDS011;60693;50.002;8.644;2022-08-25T12:12:38;11.60;;;4.07;;
72647;SDS011;60693;50.002;8.644;2022-08-25T12:26:44;9.20;;;3.93;;
72647;SDS011;60693;50.002;8.644;2022-08-25T12:37:28;10.52;;;3.50;;
72647;SDS011;60693;50.002;8.644;2022-08-25T12:39:58;10.60;;;4.10;;
72647;SDS011;60693;50.002;8.644;2022-08-25T12:42:34;8.55;;;3.70;;
72647;SDS011;60693;50.002;8.644;2022-08-25T12:47:44;9.30;;;3.58;;
72647;SDS011;60693;50.002;8.644;2022-08-25T12:53:05;10.93;;;3.20;;
72647;SDS011;60693;50.002;8.644;2022-08-25T12:55:33;7.25;;;3.05;;
72647;SDS011;60693;50.002;8.644;2022-08-25T12:57:59;10.00;;;3.17;;
72647;SDS011;60693;50.002;8.644;2022-08-25T13:00:27;11.55;;;3.40;;
72647;SDS011;60693;50.002;8.644;2022-08-25T13:06:04;7.63;;;3.57;;
72647;SDS011;60693;50.002;8.644;2022-08-25T13:11:50;8.07;;;3.42;;
72647;SDS011;60693;50.002;8.644;2022-08-25T13:14:39;7.75;;;3.28;;
72647;SDS011;60693;50.002;8.644;2022-08-25T13:17:06;8.52;;;3.20;;
72647;SDS011;60693;50.002;8.644;2022-08-25T13:19:33;8.07;;;3.70;;
72647;SDS011;60693;50.002;8.644;2022-08-25T13:22:00;7.47;;;3.83;;
72647;SDS011;60693;50.002;8.644;2022-08-25T13:24:28;7.40;;;3.58;;
72647;SDS011;60693;50.002;8.644;2022-08-25T13:26:58;8.57;;;3.40;;
72647;SDS011;60693;50.002;8.644;2022-08-25T13:29:31;8.95;;;3.20;;
72647;SDS011;60693;50.002;8.644;2022-08-25T13:32:01;7.27;;;2.53;;
72647;SDS011;60693;50.002;8.644;2022-08-25T13:34:36;8.65;;;3.53;;
72647;SDS011;60693;50.002;8.644;2022-08-25T13:40:05;7.75;;;3.47;;
72647;SDS011;60693;50.002;8.644;2022-08-25T13:42:41;9.52;;;3.10;;
72647;SDS011;60693;50.002;8.644;2022-08-25T13:45:19;8.17;;;3.10;;
72647;SDS011;60693;50.002;8.644;2022-08-25T13:47:46;7.88;;;2.95;;
72647;SDS011;60693;50.002;8.644;2022-08-25T13:58:20;7.83;;;3.33;;
72647;SDS011;60693;50.002;8.644;2022-08-25T14:00:59;7.63;;;3.20;;
72647;SDS011;60693;50.002;8.644;2022-08-25T14:03:33;7.90;;;3.42;;
72647;SDS011;60693;50.002;8.644;2022-08-25T14:06:04;6.95;;;3.15;;
72647;SDS011;60693;50.002;8.644;2022-08-25T14:08:40;9.05;;;3.92;;
72647;SDS011;60693;50.002;8.644;2022-08-25T14:11:26;7.73;;;3.43;;
72647;SDS011;60693;50.002;8.644;2022-08-25T14:16:59;9.68;;;3.30;;
72647;SDS011;60693;50.002;8.644;2022-08-25T14:19:26;7.35;;;3.08;;
72647;SDS011;60693;50.002;8.644;2022-08-25T14:21:52;8.98;;;3.35;;
72647;SDS011;60693;50.002;8.644;2022-08-25T14:24:20;7.37;;;3.03;;
72647;SDS011;60693;50.002;8.644;2022-08-25T14:26:47;8.75;;;3.40;;
72647;SDS011;60693;50.002;8.644;2022-08-25T14:29:13;9.05;;;3.20;;
72647;SDS011;60693;50.002;8.644;2022-08-25T14:31:41;8.02;;;3.15;;
72647;SDS011;60693;50.002;8.644;2022-08-25T14:34:09;8.55;;;3.28;;
72647;SDS011;60693;50.002;8.644;2022-08-25T14:36:37;7.77;;;3.20;;
72647;SDS011;60693;50.002;8.644;2022-08-25T14:39:03;10.18;;;3.38;;
72647;SDS011;60693;50.002;8.644;2022-08-25T14:41:31;8.27;;;3.35;;
72647;SDS011;60693;50.002;8.644;2022-08-25T14:44:01;7.85;;;3.60;;
72647;SDS011;60693;50.002;8.644;2022-08-25T14:46:28;8.00;;;3.67;;
72647;SDS011;60693;50.002;8.644;2022-08-25T14:48:56;10.70;;;3.93;;
72647;SDS011;60693;50.002;8.644;2022-08-25T14:51:24;7.93;;;3.67;;
72647;SDS011;60693;50.002;8.644;2022-08-25T14:53:51;9.13;;;3.95;;
72647;SDS011;60693;50.002;8.644;2022-08-25T14:56:18;9.38;;;4.20;;
72647;SDS011;60693;50.002;8.644;2022-08-25T14:58:44;8.60;;;3.90;;
72647;SDS011;60693;50.002;8.644;2022-08-25T15:01:10;8.00;;;3.38;;
72647;SDS011;60693;50.002;8.644;2022-08-25T15:03:38;8.20;;;3.43;;
72647;SDS011;60693;50.002;8.644;2022-08-25T15:06:07;7.82;;;3.92;;
72647;SDS011;60693;50.002;8.644;2022-08-25T15:08:33;8.18;;;4.05;;
72647;SDS011;60693;50.002;8.644;2022-08-25T15:11:17;8.52;;;3.60;;
72647;SDS011;60693;50.002;8.644;2022-08-25T15:13:43;9.47;;;3.70;;
72647;SDS011;60693;50.002;8.644;2022-08-25T15:16:14;10.13;;;3.73;;
72647;SDS011;60693;50.002;8.644;2022-08-25T15:18:49;9.93;;;3.58;;
72647;SDS011;60693;50.002;8.644;2022-08-25T15:21:15;8.90;;;4.07;;
72647;SDS011;60693;50.002;8.644;2022-08-25T15:23:41;8.50;;;3.87;;
72647;SDS011;60693;50.002;8.644;2022-08-25T15:26:07;10.27;;;3.75;;
72647;SDS011;60693;50.002;8.644;2022-08-25T15:28:41;8.45;;;3.97;;
72647;SDS011;60693;50.002;8.644;2022-08-25T15:31:12;9.70;;;4.00;;
72647;SDS011;60693;50.002;8.644;2022-08-25T15:33:37;8.93;;;4.20;;
72647;SDS011;60693;50.002;8.644;2022-08-25T15:36:05;8.20;;;3.45;;
72647;SDS011;60693;50.002;8.644;2022-08-25T15:38:36;9.77;;;3.10;;
72647;SDS011;60693;50.002;8.644;2022-08-25T15:41:02;8.40;;;3.03;;
72647;SDS011;60693;50.002;8.644;2022-08-25T15:43:29;9.13;;;3.28;;
72647;SDS011;60693;50.002;8.644;2022-08-25T15:45:55;7.87;;;3.37;;
72647;SDS011;60693;50.002;8.644;2022-08-25T15:48:21;8.65;;;3.70;;
72647;SDS011;60693;50.002;8.644;2022-08-25T15:50:47;7.47;;;3.28;;
72647;SDS011;60693;50.002;8.644;2022-08-25T15:53:20;9.02;;;3.60;;
72647;SDS011;60693;50.002;8.644;2022-08-25T15:55:47;7.63;;;3.70;;
72647;SDS011;60693;50.002;8.644;2022-08-25T15:58:13;8.93;;;3.35;;
72647;SDS011;60693;50.002;8.644;2022-08-25T16:00:41;9.30;;;3.42;;
72647;SDS011;60693;50.002;8.644;2022-08-25T16:03:07;9.05;;;3.60;;
72647;SDS011;60693;50.002;8.644;2022-08-25T16:05:39;9.57;;;3.60;;
72647;SDS011;60693;50.002;8.644;2022-08-25T16:08:06;7.75;;;3.67;;
72647;SDS011;60693;50.002;8.644;2022-08-25T16:10:36;9.88;;;3.60;;
72647;SDS011;60693;50.002;8.644;2022-08-25T16:13:03;7.90;;;3.40;;
72647;SDS011;60693;50.002;8.644;2022-08-25T16:15:30;9.95;;;3.30;;
72647;SDS011;60693;50.002;8.644;2022-08-25T16:17:59;7.97;;;3.40;;
72647;SDS011;60693;50.002;8.644;2022-08-25T16:20:25;8.38;;;3.88;;
72647;SDS011;60693;50.002;8.644;2022-08-25T16:22:51;8.95;;;3.75;;
72647;SDS011;60693;50.002;8.644;2022-08-25T16:25:17;10.00;;;3.70;;
72647;SDS011;60693;50.002;8.644;2022-08-25T16:27:43;7.32;;;3.30;;
72647;SDS011;60693;50.002;8.644;2022-08-25T16:30:09;10.80;;;3.58;;
72647;SDS011;60693;50.002;8.644;2022-08-25T16:32:36;7.65;;;3.47;;
72647;SDS011;60693;50.002;8.644;2022-08-25T16:35:02;8.27;;;3.40;;
72647;SDS011;60693;50.002;8.644;2022-08-25T16:37:30;8.27;;;3.58;;